createdAt,value
2023-04-10T00:00:16.443Z,30.40
2023-04-10T00:02:48.740Z,28.40
2023-04-10T00:05:19.395Z,30.10
2023-04-10T00:46:57.890Z,20.30
2023-04-10T00:49:27.311Z,22.70
2023-04-10T00:52:14.643Z,21.20
2023-04-10T01:40:42.513Z,24.00
2023-04-10T01:43:20.521Z,24.60
2023-04-10T01:45:53.040Z,24.80
2023-04-10T01:48:21.992Z,24.50
2023-04-10T01:50:50.633Z,26.90
2023-04-10T01:53:20.382Z,25.60
2023-04-10T01:55:49.612Z,25.40
2023-04-10T01:58:18.628Z,24.80
2023-04-10T02:00:48.047Z,25.20
2023-04-10T02:22:01.212Z,22.10
2023-04-10T02:24:31.352Z,20.80
2023-04-10T02:27:14.211Z,20.80
2023-04-10T02:29:43.430Z,20.70
2023-04-10T02:45:19.292Z,23.60
2023-04-10T02:48:29.343Z,21.70
2023-04-10T03:33:35.416Z,24.60
2023-04-10T03:39:59.296Z,24.20
2023-04-10T03:43:08.045Z,27.70
2023-04-10T03:45:38.229Z,27.00
2023-04-10T03:48:07.761Z,28.70
2023-04-10T03:50:43.287Z,28.00
2023-04-10T03:53:13.974Z,27.30
2023-04-10T03:55:45.074Z,28.70
2023-04-10T04:08:36.361Z,22.90
2023-04-10T04:12:19.294Z,20.50
2023-04-10T04:31:34.471Z,18.40
2023-04-10T04:38:03.239Z,16.20
2023-04-10T04:41:33.275Z,15.60
2023-04-10T04:44:44.861Z,15.40
2023-04-10T04:54:36.373Z,13.10
2023-04-10T04:57:31.272Z,11.90
2023-04-10T05:00:17.436Z,13.00
2023-04-10T05:03:10.072Z,11.70
2023-04-10T05:06:06.446Z,13.90
2023-04-10T05:09:39.779Z,12.50
2023-04-10T05:13:04.719Z,13.60
2023-04-10T05:23:11.505Z,10.60
2023-04-10T05:26:11.533Z,11.70
2023-04-10T05:29:09.697Z,12.40
2023-04-10T05:31:58.974Z,12.60
2023-04-10T05:34:59.939Z,11.40
2023-04-10T05:37:49.022Z,11.00
2023-04-10T05:40:33.173Z,11.40
2023-04-10T05:43:26.324Z,10.30
2023-04-10T05:46:26.549Z,11.10
2023-04-10T05:49:17.979Z,11.70
2023-04-10T05:52:09.756Z,11.00
2023-04-10T05:54:44.637Z,11.90
2023-04-10T05:57:32.474Z,10.60
2023-04-10T06:00:20.061Z,10.30
2023-04-10T06:03:08.016Z,11.40
2023-04-10T06:05:46.787Z,12.70
2023-04-10T06:08:17.538Z,9.90
2023-04-10T06:10:47.538Z,10.10
2023-04-10T06:13:17.457Z,11.10
2023-04-10T06:15:47.669Z,11.40
2023-04-10T06:18:17.791Z,12.30
2023-04-10T06:20:46.697Z,11.60
2023-04-10T06:23:19.056Z,10.50
2023-04-10T06:25:48.106Z,9.10
2023-04-10T06:28:17.373Z,8.60
2023-04-10T06:30:56.688Z,8.40
2023-04-10T06:33:32.288Z,9.60
2023-04-10T06:36:01.470Z,7.40
2023-04-10T06:38:34.100Z,7.60
2023-04-10T06:41:03.138Z,6.40
2023-04-10T06:43:41.445Z,8.20
2023-04-10T06:46:10.790Z,6.90
2023-04-10T06:48:40.320Z,7.10
2023-04-10T06:51:09.573Z,6.40
2023-04-10T06:53:38.529Z,6.20
2023-04-10T06:56:08.498Z,6.90
2023-04-10T06:58:48.373Z,6.40
2023-04-10T07:01:17.978Z,6.30
2023-04-10T07:03:46.523Z,5.60
2023-04-10T07:06:20.507Z,5.40
2023-04-10T07:08:56.449Z,6.40
2023-04-10T07:11:25.627Z,5.70
2023-04-10T07:13:58.623Z,6.00
2023-04-10T07:16:29.678Z,5.50
2023-04-10T07:18:59.086Z,4.80
2023-04-10T07:21:28.061Z,5.40
2023-04-10T07:23:57.334Z,5.00
2023-04-10T07:26:26.906Z,6.90
2023-04-10T07:28:56.516Z,5.10
2023-04-10T07:31:26.444Z,6.20
2023-04-10T07:33:55.010Z,6.40
2023-04-10T07:36:23.734Z,5.70
2023-04-10T07:38:54.328Z,4.40
2023-04-10T07:41:30.064Z,4.80
2023-04-10T07:44:02.504Z,5.10
2023-04-10T07:46:52.693Z,4.90
2023-04-10T07:49:25.408Z,5.90
2023-04-10T07:51:55.141Z,5.10
2023-04-10T07:54:27.149Z,5.30
2023-04-10T07:56:57.653Z,4.50
2023-04-10T07:59:27.691Z,4.50
2023-04-10T08:01:56.383Z,4.70
2023-04-10T08:04:26.106Z,5.10
2023-04-10T08:06:55.765Z,4.40
2023-04-10T08:09:24.572Z,4.90
2023-04-10T08:11:55.076Z,5.10
2023-04-10T08:14:23.970Z,4.80
2023-04-10T08:16:54.765Z,4.90
2023-04-10T08:19:24.632Z,4.30
2023-04-10T08:21:53.631Z,3.50
2023-04-10T08:24:29.516Z,3.30
2023-04-10T08:27:18.135Z,3.20
2023-04-10T08:29:47.748Z,4.20
2023-04-10T08:32:16.439Z,3.60
2023-04-10T08:34:45.210Z,2.90
2023-04-10T08:37:15.927Z,3.50
2023-04-10T08:39:45.739Z,2.80
2023-04-10T08:42:14.756Z,3.10
2023-04-10T08:44:43.787Z,3.80
2023-04-10T08:47:12.419Z,4.10
2023-04-10T08:50:12.192Z,3.90
2023-04-10T08:52:44.044Z,3.00
2023-04-10T08:55:18.256Z,3.70
2023-04-10T08:57:54.367Z,4.40
2023-04-10T09:00:31.882Z,3.40
2023-04-10T09:03:05.139Z,3.70
2023-04-10T09:05:35.685Z,2.90
2023-04-10T09:08:05.180Z,3.60
2023-04-10T09:10:36.042Z,3.70
2023-04-10T09:13:05.280Z,3.40
2023-04-10T09:15:55.709Z,2.70
2023-04-10T09:18:55.220Z,4.00
2023-04-10T09:21:24.929Z,3.50
2023-04-10T09:24:00.929Z,2.70
2023-04-10T09:26:34.028Z,3.10
2023-04-10T09:29:04.692Z,3.10
2023-04-10T09:31:34.884Z,3.00
2023-04-10T09:34:18.251Z,3.40
2023-04-10T09:37:01.609Z,4.00
2023-04-10T09:39:44.412Z,3.80
2023-04-10T09:42:14.295Z,4.20
2023-04-10T09:44:43.333Z,3.40
2023-04-10T09:47:15.751Z,4.30
2023-04-10T09:49:52.774Z,3.60
2023-04-10T09:52:28.573Z,3.20
2023-04-10T09:54:58.722Z,3.40
2023-04-10T09:57:30.806Z,3.70
2023-04-10T10:00:07.324Z,2.90
2023-04-10T10:02:39.433Z,3.20
2023-04-10T10:05:10.985Z,4.00
2023-04-10T10:07:42.187Z,3.20
2023-04-10T10:10:12.461Z,3.20
2023-04-10T10:12:46.295Z,3.80
2023-04-10T10:15:40.894Z,3.60
2023-04-10T10:18:23.370Z,2.70
2023-04-10T10:20:52.415Z,3.00
2023-04-10T10:23:27.277Z,3.30
2023-04-10T10:26:02.468Z,3.70
2023-04-10T10:28:34.962Z,3.40
2023-04-10T10:31:05.104Z,3.00
2023-04-10T10:33:36.801Z,4.40
2023-04-10T10:36:06.013Z,4.00
2023-04-10T10:38:39.171Z,4.40
2023-04-10T10:41:21.750Z,3.50
2023-04-10T10:44:00.579Z,3.40
2023-04-10T10:46:50.610Z,3.50
2023-04-10T10:50:06.079Z,4.20
2023-04-10T10:52:57.713Z,3.50
2023-04-10T10:55:27.649Z,4.80
2023-04-10T10:57:59.097Z,4.10
2023-04-10T11:00:50.829Z,5.60
2023-04-10T11:03:29.140Z,4.10
2023-04-10T11:06:03.294Z,4.90
2023-04-10T11:08:44.619Z,3.50
2023-04-10T11:11:28.164Z,3.00
2023-04-10T11:14:13.305Z,3.40
2023-04-10T11:16:47.000Z,2.40
2023-04-10T11:19:24.606Z,3.30
2023-04-10T11:22:15.809Z,3.00
2023-04-10T11:24:54.474Z,2.70
2023-04-10T11:27:40.667Z,3.30
2023-04-10T11:30:28.061Z,2.80
2023-04-10T11:32:58.177Z,3.10
2023-04-10T11:35:28.126Z,3.70
2023-04-10T11:38:16.789Z,3.10
2023-04-10T11:41:02.413Z,3.40
2023-04-10T11:43:31.824Z,4.40
2023-04-10T11:46:05.031Z,3.10
2023-04-10T11:48:33.812Z,3.00
2023-04-10T11:51:09.810Z,3.00
2023-04-10T11:53:39.438Z,3.20
2023-04-10T11:56:19.524Z,3.80
2023-04-10T11:58:51.331Z,3.30
2023-04-10T12:01:21.918Z,3.80
2023-04-10T12:03:50.759Z,3.50
2023-04-10T12:06:22.148Z,4.70
2023-04-10T12:08:51.384Z,5.90
2023-04-10T12:11:26.849Z,4.80
2023-04-10T12:13:58.311Z,3.10
2023-04-10T12:16:27.591Z,3.10
2023-04-10T12:19:03.546Z,3.50
2023-04-10T12:21:32.700Z,3.60
2023-04-10T12:24:02.219Z,3.50
2023-04-10T12:26:31.360Z,2.90
2023-04-10T12:28:59.911Z,3.20
2023-04-10T12:31:34.376Z,3.00
2023-04-10T12:34:05.565Z,3.00
2023-04-10T12:36:35.374Z,4.00
2023-04-10T12:39:05.529Z,3.70
2023-04-10T12:41:34.464Z,3.00
2023-04-10T12:44:13.171Z,3.20
2023-04-10T12:46:42.174Z,2.30
2023-04-10T12:49:14.838Z,3.00
2023-04-10T12:51:46.950Z,3.10
2023-04-10T12:54:33.419Z,3.10
2023-04-10T12:57:07.378Z,3.20
2023-04-10T12:59:36.224Z,3.80
2023-04-10T13:02:04.802Z,3.90
2023-04-10T13:04:34.704Z,3.70
2023-04-10T13:07:03.556Z,4.10
2023-04-10T13:09:32.958Z,3.20
2023-04-10T13:12:09.273Z,2.90
2023-04-10T13:14:38.815Z,2.80
2023-04-10T13:17:07.476Z,4.30
2023-04-10T13:19:40.752Z,5.40
2023-04-10T13:22:09.354Z,3.40
2023-04-10T13:24:38.618Z,2.80
2023-04-10T13:27:38.843Z,2.40
2023-04-10T13:30:08.877Z,2.90
2023-04-10T13:32:37.796Z,3.70
2023-04-10T13:35:07.040Z,4.70
2023-04-10T13:37:36.933Z,4.60
2023-04-10T13:40:07.689Z,3.30
2023-04-10T13:42:39.307Z,3.10
2023-04-10T13:45:09.793Z,3.70
2023-04-10T13:47:38.358Z,2.70
2023-04-10T13:50:08.102Z,2.40
2023-04-10T13:52:42.368Z,2.50
2023-04-10T13:55:11.741Z,3.30
2023-04-10T13:57:40.570Z,3.00
2023-04-10T14:00:10.458Z,2.80
2023-04-10T14:02:56.115Z,2.80
2023-04-10T14:05:25.360Z,2.90
2023-04-10T14:07:57.109Z,3.50
2023-04-10T14:10:25.976Z,2.50
2023-04-10T14:12:54.518Z,2.70
2023-04-10T14:15:43.004Z,3.30
2023-04-10T14:18:11.718Z,3.10
2023-04-10T14:20:42.594Z,3.30
2023-04-10T14:23:17.808Z,3.30
2023-04-10T14:25:46.805Z,3.50
2023-04-10T14:28:20.365Z,2.70
2023-04-10T14:30:49.894Z,3.70
2023-04-10T14:33:22.534Z,3.00
2023-04-10T14:35:52.364Z,3.30
2023-04-10T14:38:21.031Z,2.80
2023-04-10T14:40:50.961Z,3.50
2023-04-10T14:43:19.775Z,3.40
2023-04-10T14:45:49.791Z,3.40
2023-04-10T14:48:20.085Z,3.60
2023-04-10T14:50:49.756Z,3.20
2023-04-10T14:53:19.293Z,3.30
2023-04-10T14:55:48.064Z,3.80
2023-04-10T14:58:16.707Z,3.80
2023-04-10T15:00:45.526Z,3.20
2023-04-10T15:03:14.181Z,3.60
2023-04-10T15:06:00.295Z,3.50
2023-04-10T15:08:29.139Z,3.20
2023-04-10T15:10:57.621Z,3.70
2023-04-10T15:13:26.606Z,3.00
2023-04-10T15:15:55.631Z,3.30
2023-04-10T15:18:25.828Z,3.40
2023-04-10T15:20:56.128Z,3.80
2023-04-10T15:23:25.700Z,3.60
2023-04-10T15:25:59.781Z,3.60
2023-04-10T15:28:29.896Z,3.80
2023-04-10T15:30:58.190Z,3.30
2023-04-10T15:33:28.674Z,3.20
2023-04-10T15:35:57.184Z,4.00
2023-04-10T15:38:29.059Z,3.60
2023-04-10T15:40:58.239Z,3.50
2023-04-10T15:43:28.172Z,4.20
2023-04-10T15:46:02.110Z,3.90
2023-04-10T15:48:31.125Z,3.70
2023-04-10T15:51:03.319Z,3.90
2023-04-10T15:53:32.392Z,4.00
2023-04-10T15:56:00.997Z,4.20
2023-04-10T15:58:31.207Z,4.00
2023-04-10T16:00:59.940Z,3.80
2023-04-10T16:03:30.197Z,4.20
2023-04-10T16:05:59.092Z,3.70
2023-04-10T16:08:27.840Z,4.70
2023-04-10T16:10:56.957Z,4.80
2023-04-10T16:13:25.558Z,4.00
2023-04-10T16:15:54.421Z,4.60
2023-04-10T16:18:22.872Z,5.20
2023-04-10T16:20:51.637Z,6.80
2023-04-10T16:23:20.675Z,7.50
2023-04-10T16:25:52.022Z,10.20
2023-04-10T16:28:23.036Z,10.70
2023-04-10T16:30:51.377Z,8.20
2023-04-10T16:33:26.692Z,9.20
2023-04-10T16:35:56.182Z,17.60
2023-04-10T16:38:24.957Z,17.10
2023-04-10T16:40:53.735Z,14.80
2023-04-10T16:43:23.737Z,13.50
2023-04-10T16:45:57.721Z,16.00
2023-04-10T16:50:55.976Z,11.50
2023-04-10T16:53:27.520Z,10.80
2023-04-10T16:56:02.117Z,9.20
2023-04-10T16:58:41.256Z,7.40
2023-04-10T17:01:18.210Z,5.40
2023-04-10T17:03:47.930Z,6.10
2023-04-10T17:06:16.702Z,7.10
2023-04-10T17:08:46.650Z,8.90
2023-04-10T17:11:16.253Z,7.00
2023-04-10T17:13:46.102Z,7.80
2023-04-10T17:16:16.458Z,9.40
2023-04-10T17:18:46.713Z,8.30
2023-04-10T17:21:15.760Z,8.50
2023-04-10T17:23:49.582Z,8.90
2023-04-10T17:26:22.193Z,12.90
2023-04-10T17:28:51.517Z,11.20
2023-04-10T17:31:21.647Z,11.70
2023-04-10T17:33:50.244Z,9.70
2023-04-10T17:36:19.133Z,8.20
2023-04-10T17:38:48.033Z,8.10
2023-04-10T17:41:16.868Z,8.30
2023-04-10T17:43:47.449Z,8.50
2023-04-10T17:46:16.367Z,9.10
2023-04-10T17:48:51.872Z,9.10
2023-04-10T17:51:21.061Z,9.30
2023-04-10T17:53:49.870Z,9.20
2023-04-10T17:56:19.821Z,7.90
2023-04-10T17:58:56.218Z,8.40
2023-04-10T18:01:27.747Z,8.00
2023-04-10T18:04:00.186Z,7.80
2023-04-10T18:06:29.381Z,7.80
2023-04-10T18:08:58.300Z,7.70
2023-04-10T18:11:27.478Z,8.10
2023-04-10T18:13:56.204Z,7.80
2023-04-10T18:16:25.056Z,7.60
2023-04-10T18:18:54.397Z,7.90
2023-04-10T18:21:27.012Z,7.30
2023-04-10T18:23:55.637Z,7.50
2023-04-10T18:26:24.681Z,8.20
2023-04-10T18:28:55.248Z,6.70
2023-04-10T18:31:24.261Z,6.70
2023-04-10T18:34:06.472Z,6.20
2023-04-10T18:36:36.286Z,6.60
2023-04-10T18:39:05.105Z,7.50
2023-04-10T18:41:35.470Z,8.30
2023-04-10T18:44:05.745Z,8.10
2023-04-10T18:46:42.679Z,8.50
2023-04-10T18:49:12.813Z,8.20
2023-04-10T18:51:41.434Z,8.10
2023-04-10T18:54:11.115Z,8.00
2023-04-10T18:56:40.003Z,8.10
2023-04-10T18:59:10.673Z,8.00
2023-04-10T19:01:40.911Z,9.40
2023-04-10T19:04:09.663Z,8.80
2023-04-10T19:06:41.231Z,8.70
2023-04-10T19:09:10.361Z,8.20
2023-04-10T19:11:39.887Z,7.70
2023-04-10T19:14:15.728Z,8.20
2023-04-10T19:16:44.737Z,8.40
2023-04-10T19:19:13.834Z,6.90
2023-04-10T19:21:42.725Z,7.60
2023-04-10T19:24:12.593Z,8.40
2023-04-10T19:26:42.635Z,8.10
2023-04-10T19:29:13.716Z,6.80
2023-04-10T19:31:51.476Z,6.70
2023-04-10T19:34:21.778Z,7.10
2023-04-10T19:36:51.068Z,6.60
2023-04-10T19:39:19.722Z,6.70
2023-04-10T19:41:49.136Z,5.60
2023-04-10T19:44:18.566Z,6.30
2023-04-10T19:46:55.067Z,6.00
2023-04-10T19:49:24.712Z,6.80
2023-04-10T19:51:53.773Z,5.90
2023-04-10T19:54:22.444Z,6.50
2023-04-10T19:56:51.157Z,6.00
2023-04-10T19:59:26.362Z,5.00
2023-04-10T20:01:55.791Z,6.80
2023-04-10T20:04:24.872Z,6.00
2023-04-10T20:06:57.824Z,6.50
2023-04-10T20:09:26.302Z,5.50
2023-04-10T20:11:55.233Z,5.40
2023-04-10T20:14:25.514Z,11.30
2023-04-10T20:16:54.137Z,8.00
2023-04-10T20:19:22.722Z,6.20
2023-04-10T20:21:53.294Z,5.60
2023-04-10T20:24:21.929Z,5.80
2023-04-10T20:26:50.721Z,6.00
2023-04-10T20:29:19.220Z,5.10
2023-04-10T20:31:47.827Z,5.30
2023-04-10T20:34:16.529Z,5.70
2023-04-10T20:36:45.187Z,5.60
2023-04-10T20:39:13.671Z,5.60
2023-04-10T20:41:42.352Z,5.10
2023-04-10T20:44:10.929Z,5.80
2023-04-10T20:46:40.554Z,6.80
2023-04-10T20:49:16.140Z,5.50
2023-04-10T20:51:47.379Z,5.00
2023-04-10T20:54:16.103Z,6.20
2023-04-10T20:56:44.703Z,5.00
2023-04-10T20:59:13.824Z,5.40
2023-04-10T21:01:42.621Z,6.00
2023-04-10T21:04:11.616Z,6.00
2023-04-10T21:06:40.204Z,5.70
2023-04-10T21:09:08.798Z,5.70
2023-04-10T21:11:37.933Z,6.00
2023-04-10T21:14:10.061Z,6.60
2023-04-10T21:16:42.561Z,5.40
2023-04-10T21:19:11.474Z,5.30
2023-04-10T21:21:45.797Z,6.20
2023-04-10T21:24:14.467Z,6.40
2023-04-10T21:26:43.026Z,7.10
2023-04-10T21:29:11.557Z,6.70
2023-04-10T21:31:40.265Z,6.50
2023-04-10T21:34:16.843Z,6.40
2023-04-10T21:36:45.608Z,6.20
2023-04-10T21:39:14.317Z,5.80
2023-04-10T21:41:43.325Z,7.80
2023-04-10T21:44:12.919Z,7.90
2023-04-10T21:46:41.846Z,7.90
2023-04-10T21:49:10.731Z,7.40
2023-04-10T21:51:40.709Z,40.60
2023-04-10T21:54:09.511Z,47.10
2023-04-10T21:56:41.058Z,16.00
2023-04-10T21:59:09.548Z,9.70
2023-04-10T22:01:41.861Z,7.60
2023-04-10T22:04:10.658Z,7.60
2023-04-10T22:06:39.278Z,7.60
2023-04-10T22:09:07.757Z,7.90
2023-04-10T22:11:37.356Z,10.60
2023-04-10T22:14:17.996Z,8.80
2023-04-10T22:16:48.685Z,9.30
2023-04-10T22:19:17.280Z,8.00
2023-04-10T22:21:52.657Z,8.40
2023-04-10T22:24:21.519Z,8.80
2023-04-10T22:26:50.135Z,7.80
2023-04-10T22:29:19.645Z,7.90
2023-04-10T22:31:48.534Z,8.80
2023-04-10T22:34:17.597Z,8.80
2023-04-10T22:36:46.630Z,9.00
2023-04-10T22:39:15.413Z,10.20
2023-04-10T22:41:45.311Z,10.80
2023-04-10T22:44:14.314Z,10.50
2023-04-10T22:46:49.578Z,9.10
2023-04-10T22:49:18.260Z,8.80
2023-04-10T22:51:46.894Z,8.40
2023-04-10T22:54:16.767Z,9.30
2023-04-10T22:56:45.722Z,9.20
2023-04-10T22:59:14.225Z,8.80
2023-04-10T23:01:45.324Z,8.10
2023-04-10T23:04:14.121Z,10.60
2023-04-10T23:06:44.657Z,14.30
2023-04-10T23:09:13.312Z,13.90
2023-04-10T23:11:48.155Z,13.60
2023-04-10T23:14:18.412Z,9.50
2023-04-10T23:16:47.227Z,12.40
2023-04-10T23:19:16.077Z,17.40
2023-04-10T23:21:44.611Z,20.60
2023-04-10T23:24:14.304Z,11.40
2023-04-10T23:26:43.371Z,8.20
2023-04-10T23:29:12.160Z,8.10
2023-04-10T23:31:40.829Z,9.00
2023-04-10T23:34:10.805Z,9.00
2023-04-10T23:36:40.703Z,8.10
2023-04-10T23:39:09.241Z,8.40
2023-04-10T23:41:38.150Z,10.00
2023-04-10T23:44:07.127Z,10.70
2023-04-10T23:46:35.946Z,10.20
2023-04-10T23:49:05.268Z,8.80
2023-04-10T23:51:34.695Z,9.20
2023-04-10T23:54:04.132Z,9.90
2023-04-10T23:56:32.942Z,9.10
2023-04-10T23:59:01.700Z,11.70
